createdAt,value
2022-07-29T00:00:01.048Z,23.36
2022-07-29T00:02:28.894Z,23.27
2022-07-29T00:04:55.677Z,23.24
2022-07-29T00:07:22.370Z,23.24
2022-07-29T00:09:51.110Z,23.25
2022-07-29T00:12:25.176Z,23.23
2022-07-29T00:14:54.269Z,23.19
2022-07-29T00:17:20.877Z,23.18
2022-07-29T00:19:47.506Z,23.11
2022-07-29T00:22:14.120Z,23.05
2022-07-29T00:24:40.701Z,23.03
2022-07-29T00:27:07.326Z,23.00
2022-07-29T00:29:34.912Z,22.94
2022-07-29T00:32:02.766Z,22.91
2022-07-29T00:34:49.680Z,22.87
2022-07-29T00:37:16.358Z,22.82
2022-07-29T00:39:43.219Z,22.82
2022-07-29T00:42:10.796Z,22.79
2022-07-29T00:44:39.428Z,22.73
2022-07-29T00:47:06.553Z,22.66
2022-07-29T00:49:34.596Z,22.60
2022-07-29T00:52:06.390Z,22.56
2022-07-29T00:54:34.833Z,22.50
2022-07-29T00:57:01.891Z,22.47
2022-07-29T00:59:34.605Z,22.45
2022-07-29T01:02:03.671Z,22.38
2022-07-29T01:04:31.893Z,22.35
2022-07-29T01:06:58.941Z,22.30
2022-07-29T01:09:42.964Z,22.26
2022-07-29T01:12:20.028Z,22.16
2022-07-29T01:14:48.597Z,22.12
2022-07-29T01:17:25.000Z,22.08
2022-07-29T01:20:03.194Z,22.05
2022-07-29T01:22:35.557Z,22.03
2022-07-29T01:25:29.892Z,22.00
2022-07-29T01:27:56.415Z,21.93
2022-07-29T01:30:25.881Z,21.90
2022-07-29T01:32:59.827Z,21.90
2022-07-29T01:35:32.563Z,21.93
2022-07-29T01:38:23.167Z,21.93
2022-07-29T01:40:59.741Z,21.90
2022-07-29T01:43:41.178Z,21.92
2022-07-29T01:46:15.610Z,21.90
2022-07-29T01:48:54.467Z,21.90
2022-07-29T01:51:28.272Z,21.90
2022-07-29T01:54:26.158Z,21.86
2022-07-29T01:56:54.749Z,21.82
2022-07-29T01:59:22.186Z,21.78
2022-07-29T02:01:54.507Z,21.76
2022-07-29T02:04:29.457Z,21.71
2022-07-29T02:07:01.607Z,21.68
2022-07-29T02:09:30.806Z,21.66
2022-07-29T02:12:00.431Z,21.63
2022-07-29T02:14:30.813Z,21.62
2022-07-29T02:17:01.174Z,21.62
2022-07-29T02:19:29.521Z,21.60
2022-07-29T02:21:58.708Z,21.60
2022-07-29T02:24:27.430Z,21.60
2022-07-29T02:26:56.554Z,21.61
2022-07-29T02:29:27.183Z,21.61
2022-07-29T02:31:55.237Z,21.63
2022-07-29T02:34:22.879Z,21.66
2022-07-29T02:36:50.850Z,21.66
2022-07-29T02:39:19.212Z,21.68
2022-07-29T02:41:49.442Z,21.71
2022-07-29T02:44:22.440Z,21.71
2022-07-29T02:47:07.508Z,21.71
2022-07-29T02:50:09.400Z,21.75
2022-07-29T02:52:38.803Z,21.75
2022-07-29T02:55:27.296Z,21.76
2022-07-29T02:58:09.494Z,21.76
2022-07-29T03:00:40.229Z,21.76
2022-07-29T03:03:12.328Z,21.77
2022-07-29T03:05:40.452Z,21.76
2022-07-29T03:08:10.469Z,21.75
2022-07-29T03:10:39.949Z,21.72
2022-07-29T03:13:07.479Z,21.73
2022-07-29T03:15:34.571Z,21.72
2022-07-29T03:18:01.745Z,21.71
2022-07-29T03:20:28.473Z,21.72
2022-07-29T03:22:55.213Z,21.73
2022-07-29T03:25:21.940Z,21.75
2022-07-29T03:27:49.287Z,21.75
2022-07-29T03:30:21.617Z,21.77
2022-07-29T03:32:49.362Z,21.76
2022-07-29T03:35:18.689Z,21.72
2022-07-29T03:37:46.046Z,21.70
2022-07-29T03:40:18.318Z,21.71
2022-07-29T03:42:46.747Z,21.72
2022-07-29T03:45:16.560Z,21.73
2022-07-29T03:47:50.622Z,21.73
2022-07-29T03:50:20.486Z,21.77
2022-07-29T03:52:48.497Z,21.80
2022-07-29T03:55:16.320Z,21.82
2022-07-29T03:57:45.699Z,21.86
2022-07-29T04:00:13.205Z,21.90
2022-07-29T04:02:41.031Z,21.93
2022-07-29T04:05:13.605Z,21.95
2022-07-29T04:07:41.195Z,21.92
2022-07-29T04:10:08.851Z,21.94
2022-07-29T04:12:36.134Z,21.96
2022-07-29T04:15:04.910Z,21.94
2022-07-29T04:17:31.712Z,21.93
2022-07-29T04:19:58.310Z,21.99
2022-07-29T04:22:24.986Z,22.06
2022-07-29T04:24:51.869Z,22.12
2022-07-29T04:27:18.570Z,22.13
2022-07-29T04:29:56.530Z,22.24
2022-07-29T04:32:25.188Z,22.29
2022-07-29T04:34:57.768Z,22.30
2022-07-29T04:37:24.643Z,22.33
2022-07-29T04:39:51.649Z,22.39
2022-07-29T04:42:18.255Z,22.42
2022-07-29T04:44:53.316Z,22.51
2022-07-29T04:47:20.032Z,22.66
2022-07-29T04:49:46.625Z,22.68
2022-07-29T04:52:13.236Z,22.77
2022-07-29T04:54:39.838Z,22.76
2022-07-29T04:57:06.434Z,22.74
2022-07-29T04:59:33.038Z,22.86
2022-07-29T05:01:59.757Z,23.00
2022-07-29T05:04:26.451Z,23.15
2022-07-29T05:06:53.089Z,23.24
2022-07-29T05:09:19.671Z,23.30
2022-07-29T05:11:46.319Z,23.43
2022-07-29T05:14:14.079Z,23.56
2022-07-29T05:16:41.289Z,23.64
2022-07-29T05:19:12.289Z,23.79
2022-07-29T05:21:40.955Z,23.94
2022-07-29T05:24:07.633Z,24.02
2022-07-29T05:26:34.265Z,24.20
2022-07-29T05:29:00.839Z,24.29
2022-07-29T05:31:27.500Z,24.30
2022-07-29T05:33:54.245Z,24.40
2022-07-29T05:36:20.868Z,24.52
2022-07-29T05:38:47.447Z,24.55
2022-07-29T05:41:14.127Z,24.69
2022-07-29T05:43:40.749Z,24.82
2022-07-29T05:46:07.365Z,24.78
2022-07-29T05:48:34.406Z,24.91
2022-07-29T05:51:01.255Z,24.86
2022-07-29T05:53:28.278Z,25.03
2022-07-29T05:55:54.939Z,25.35
2022-07-29T05:58:21.626Z,25.51
2022-07-29T06:00:48.290Z,25.43
2022-07-29T06:03:15.057Z,25.62
2022-07-29T06:05:41.847Z,25.72
2022-07-29T06:08:08.610Z,25.68
2022-07-29T06:10:38.459Z,25.44
2022-07-29T06:13:05.067Z,25.79
2022-07-29T06:15:31.783Z,26.07
2022-07-29T06:17:59.207Z,26.07
2022-07-29T06:20:31.279Z,26.09
2022-07-29T06:22:58.665Z,26.03
2022-07-29T06:25:25.301Z,25.95
2022-07-29T06:27:51.876Z,26.15
2022-07-29T06:30:18.595Z,26.05
2022-07-29T06:32:45.269Z,26.23
2022-07-29T06:35:37.677Z,26.35
2022-07-29T06:37:59.717Z,26.36
2022-07-29T06:41:02.258Z,26.50
2022-07-29T06:43:32.428Z,26.42
2022-07-29T06:46:02.328Z,26.67
2022-07-29T06:48:29.981Z,26.80
2022-07-29T06:50:56.813Z,27.04
2022-07-29T06:53:23.687Z,27.21
2022-07-29T06:55:50.430Z,27.26
2022-07-29T06:58:18.953Z,27.34
2022-07-29T07:00:46.092Z,27.63
2022-07-29T07:03:12.837Z,27.80
2022-07-29T07:05:39.922Z,27.99
2022-07-29T07:08:06.999Z,28.20
2022-07-29T07:10:34.073Z,28.54
2022-07-29T07:13:01.734Z,28.61
2022-07-29T07:15:38.859Z,28.84
2022-07-29T07:18:07.138Z,28.94
2022-07-29T07:20:34.969Z,28.92
2022-07-29T07:23:01.736Z,29.24
2022-07-29T07:25:28.952Z,29.25
2022-07-29T07:27:55.634Z,29.27
2022-07-29T07:30:22.375Z,29.69
2022-07-29T07:32:49.073Z,29.62
2022-07-29T07:35:15.760Z,29.91
2022-07-29T07:37:42.439Z,29.89
2022-07-29T07:40:12.599Z,29.48
2022-07-29T07:42:46.541Z,29.94
2022-07-29T07:45:15.857Z,30.01
2022-07-29T07:47:43.535Z,29.64
2022-07-29T07:50:18.076Z,29.63
2022-07-29T07:52:58.606Z,29.65
2022-07-29T07:55:26.570Z,29.94
2022-07-29T07:57:53.933Z,30.09
2022-07-29T08:00:23.040Z,30.41
2022-07-29T08:02:51.209Z,30.70
2022-07-29T08:05:18.912Z,30.49
2022-07-29T08:07:47.603Z,30.77
2022-07-29T08:10:36.455Z,30.32
2022-07-29T08:13:07.951Z,30.43
2022-07-29T08:15:35.132Z,30.78
2022-07-29T08:18:08.038Z,31.26
2022-07-29T08:20:36.594Z,30.25
2022-07-29T08:23:05.431Z,30.45
2022-07-29T08:25:32.157Z,30.49
2022-07-29T08:28:01.258Z,30.51
2022-07-29T08:30:28.475Z,30.87
2022-07-29T08:32:55.997Z,31.04
2022-07-29T08:35:24.285Z,30.51
2022-07-29T08:37:51.589Z,30.63
2022-07-29T08:40:18.719Z,30.57
2022-07-29T08:42:46.334Z,31.12
2022-07-29T08:45:14.489Z,31.25
2022-07-29T08:47:41.117Z,31.65
2022-07-29T08:50:09.646Z,31.82
2022-07-29T08:52:41.440Z,31.46
2022-07-29T08:55:09.788Z,31.55
2022-07-29T08:57:37.446Z,32.22
2022-07-29T09:00:11.880Z,32.91
2022-07-29T09:02:47.554Z,32.28
2022-07-29T09:05:15.115Z,31.96
2022-07-29T09:07:44.285Z,31.94
2022-07-29T09:10:11.205Z,32.17
2022-07-29T09:12:38.430Z,32.07
2022-07-29T09:15:05.580Z,32.16
2022-07-29T09:17:51.232Z,31.39
2022-07-29T09:20:20.507Z,31.27
2022-07-29T09:22:51.831Z,31.43
2022-07-29T09:25:34.602Z,31.90
2022-07-29T09:28:12.478Z,31.86
2022-07-29T09:31:06.510Z,32.84
2022-07-29T09:33:36.628Z,33.44
2022-07-29T09:36:08.259Z,33.76
2022-07-29T09:38:38.422Z,33.85
2022-07-29T09:41:06.880Z,34.09
2022-07-29T09:43:34.418Z,33.53
2022-07-29T09:46:14.393Z,33.74
2022-07-29T09:48:41.192Z,33.99
2022-07-29T09:51:25.600Z,34.54
2022-07-29T09:53:56.792Z,34.78
2022-07-29T09:56:44.410Z,33.41
2022-07-29T09:59:13.020Z,32.98
2022-07-29T10:01:39.646Z,32.78
2022-07-29T10:04:06.577Z,34.07
2022-07-29T10:06:33.360Z,35.05
2022-07-29T10:09:12.414Z,35.95
2022-07-29T10:11:49.642Z,35.61
2022-07-29T10:14:17.250Z,35.32
2022-07-29T10:16:44.379Z,35.57
2022-07-29T10:19:11.414Z,36.24
2022-07-29T10:21:40.791Z,37.04
2022-07-29T10:24:14.814Z,37.76
2022-07-29T10:26:42.555Z,37.74
2022-07-29T10:29:09.148Z,37.46
2022-07-29T10:31:50.666Z,36.01
2022-07-29T10:34:54.786Z,35.68
2022-07-29T10:37:47.309Z,35.97
2022-07-29T10:40:41.434Z,36.41
2022-07-29T10:43:33.806Z,36.76
2022-07-29T10:46:01.571Z,36.52
2022-07-29T10:48:29.355Z,34.74
2022-07-29T10:51:05.533Z,35.32
2022-07-29T10:53:54.064Z,35.07
2022-07-29T10:56:32.314Z,34.24
2022-07-29T10:59:21.752Z,34.98
2022-07-29T11:01:54.279Z,35.36
2022-07-29T11:04:44.374Z,36.88
2022-07-29T11:07:12.921Z,36.97
2022-07-29T11:09:41.840Z,36.86
2022-07-29T11:12:39.332Z,37.21
2022-07-29T11:15:07.992Z,36.99
2022-07-29T11:17:53.683Z,37.20
2022-07-29T11:20:38.926Z,36.95
2022-07-29T11:23:33.347Z,35.55
2022-07-29T11:26:23.211Z,36.10
2022-07-29T11:28:56.070Z,36.02
2022-07-29T11:31:37.924Z,36.98
2022-07-29T11:34:27.954Z,37.74
2022-07-29T11:37:14.334Z,37.61
2022-07-29T11:40:01.535Z,37.52
2022-07-29T11:42:32.480Z,37.00
2022-07-29T11:45:43.337Z,36.57
2022-07-29T11:48:05.380Z,36.90
2022-07-29T11:50:45.961Z,37.84
2022-07-29T11:53:15.444Z,37.97
2022-07-29T11:55:50.928Z,37.78
2022-07-29T11:58:25.190Z,37.11
2022-07-29T12:00:53.106Z,35.16
2022-07-29T12:03:35.601Z,35.62
2022-07-29T12:06:12.291Z,35.95
2022-07-29T12:08:44.642Z,36.41
2022-07-29T12:11:20.810Z,36.76
2022-07-29T12:13:49.282Z,37.08
2022-07-29T12:16:25.626Z,37.56
2022-07-29T12:19:05.761Z,38.09
2022-07-29T12:21:56.800Z,37.34
2022-07-29T12:24:26.772Z,37.24
2022-07-29T12:26:58.599Z,37.11
2022-07-29T12:29:33.561Z,37.08
2022-07-29T12:32:02.358Z,36.12
2022-07-29T12:34:31.271Z,36.10
2022-07-29T12:36:58.056Z,35.56
2022-07-29T12:39:27.504Z,35.78
2022-07-29T12:42:04.716Z,35.84
2022-07-29T12:44:49.125Z,36.99
2022-07-29T12:47:17.043Z,38.15
2022-07-29T12:49:43.708Z,38.71
2022-07-29T12:52:33.845Z,38.82
2022-07-29T12:55:01.802Z,38.50
2022-07-29T12:57:29.191Z,38.21
2022-07-29T13:00:05.232Z,37.49
2022-07-29T13:02:31.951Z,37.21
2022-07-29T13:05:02.333Z,36.80
2022-07-29T13:07:54.570Z,36.62
2022-07-29T13:10:24.213Z,36.45
2022-07-29T13:13:04.693Z,36.39
2022-07-29T13:15:31.634Z,36.86
2022-07-29T13:17:59.268Z,37.62
2022-07-29T13:20:30.848Z,37.71
2022-07-29T13:23:01.610Z,37.34
2022-07-29T13:25:32.764Z,36.21
2022-07-29T13:28:01.235Z,35.66
2022-07-29T13:30:28.122Z,34.82
2022-07-29T13:32:56.050Z,34.33
2022-07-29T13:35:22.683Z,34.00
2022-07-29T13:37:49.246Z,34.15
2022-07-29T13:40:18.761Z,35.01
2022-07-29T13:42:46.243Z,35.54
2022-07-29T13:45:13.732Z,36.31
2022-07-29T13:47:43.596Z,37.10
2022-07-29T13:50:14.439Z,37.63
2022-07-29T13:52:41.065Z,37.26
2022-07-29T13:55:09.186Z,36.58
2022-07-29T13:57:36.465Z,36.18
2022-07-29T14:00:03.638Z,35.44
2022-07-29T14:02:30.323Z,35.93
2022-07-29T14:04:56.998Z,36.48
2022-07-29T14:07:23.770Z,35.81
2022-07-29T14:09:51.121Z,35.41
2022-07-29T14:12:17.828Z,35.57
2022-07-29T14:14:44.794Z,36.42
2022-07-29T14:17:14.125Z,35.54
2022-07-29T14:19:40.839Z,36.32
2022-07-29T14:22:09.653Z,37.28
2022-07-29T14:24:38.129Z,38.03
2022-07-29T14:27:07.128Z,38.33
2022-07-29T14:29:37.455Z,37.85
2022-07-29T14:32:07.182Z,36.67
2022-07-29T14:34:34.489Z,35.40
2022-07-29T14:37:01.101Z,34.80
2022-07-29T14:39:31.774Z,34.78
2022-07-29T14:42:01.756Z,34.72
2022-07-29T14:44:32.264Z,34.41
2022-07-29T14:47:08.079Z,33.96
2022-07-29T14:49:35.875Z,34.76
2022-07-29T14:52:02.829Z,35.24
2022-07-29T14:54:29.434Z,35.40
2022-07-29T14:56:58.330Z,35.28
2022-07-29T14:59:25.835Z,35.39
2022-07-29T15:01:52.569Z,35.33
2022-07-29T15:04:19.250Z,36.15
2022-07-29T15:06:45.883Z,35.89
2022-07-29T15:09:12.882Z,36.74
2022-07-29T15:11:39.537Z,36.67
2022-07-29T15:14:07.159Z,36.37
2022-07-29T15:16:36.143Z,36.54
2022-07-29T15:19:02.822Z,37.35
2022-07-29T15:21:29.485Z,37.52
2022-07-29T15:23:56.205Z,37.23
2022-07-29T15:26:22.887Z,37.87
2022-07-29T15:28:49.504Z,37.54
2022-07-29T15:31:16.208Z,38.31
2022-07-29T15:33:42.924Z,38.66
2022-07-29T15:36:09.703Z,37.58
2022-07-29T15:38:41.635Z,36.63
2022-07-29T15:41:09.134Z,37.33
2022-07-29T15:43:36.242Z,37.91
2022-07-29T15:46:21.566Z,37.95
2022-07-29T15:48:48.418Z,38.68
2022-07-29T15:51:16.130Z,38.84
2022-07-29T15:53:42.743Z,38.95
2022-07-29T15:56:09.372Z,39.30
2022-07-29T15:58:35.979Z,39.62
2022-07-29T16:01:02.683Z,39.71
2022-07-29T16:03:30.134Z,39.56
2022-07-29T16:05:57.283Z,38.25
2022-07-29T16:08:23.899Z,38.19
2022-07-29T16:10:50.710Z,38.79
2022-07-29T16:13:23.193Z,38.70
2022-07-29T16:16:02.968Z,38.46
2022-07-29T16:18:31.125Z,38.42
2022-07-29T16:20:58.013Z,38.79
2022-07-29T16:23:24.830Z,38.81
2022-07-29T16:25:59.673Z,38.60
2022-07-29T16:28:29.109Z,38.41
2022-07-29T16:30:55.797Z,38.66
2022-07-29T16:33:22.496Z,38.79
2022-07-29T16:35:52.411Z,38.75
2022-07-29T16:38:19.589Z,38.61
2022-07-29T16:40:46.299Z,38.62
2022-07-29T16:43:14.151Z,38.40
2022-07-29T16:45:46.481Z,38.25
2022-07-29T16:48:18.168Z,38.15
2022-07-29T16:50:45.770Z,37.29
2022-07-29T16:53:12.439Z,37.58
2022-07-29T16:55:41.998Z,37.41
2022-07-29T16:58:09.801Z,37.17
2022-07-29T17:00:36.683Z,37.09
2022-07-29T17:03:03.718Z,36.78
2022-07-29T17:05:52.763Z,36.54
2022-07-29T17:08:17.672Z,36.42
2022-07-29T17:10:44.381Z,36.15
2022-07-29T17:13:11.041Z,35.95
2022-07-29T17:15:37.715Z,35.71
2022-07-29T17:18:12.453Z,35.22
2022-07-29T17:20:41.966Z,34.73
2022-07-29T17:23:08.815Z,34.47
2022-07-29T17:25:35.524Z,34.12
2022-07-29T17:28:02.192Z,33.69
2022-07-29T17:30:29.892Z,33.56
2022-07-29T17:32:56.549Z,33.32
2022-07-29T17:35:47.741Z,33.08
2022-07-29T17:38:14.356Z,32.62
2022-07-29T17:40:40.996Z,32.43
2022-07-29T17:43:09.315Z,32.21
2022-07-29T17:45:50.028Z,31.94
2022-07-29T17:48:17.127Z,31.91
2022-07-29T17:50:43.794Z,31.78
2022-07-29T17:53:16.355Z,31.64
2022-07-29T17:55:48.741Z,31.51
2022-07-29T17:58:15.939Z,31.37
2022-07-29T18:00:42.871Z,31.26
2022-07-29T18:03:09.880Z,31.24
2022-07-29T18:05:36.835Z,31.16
2022-07-29T18:08:03.677Z,31.03
2022-07-29T18:10:30.369Z,30.93
2022-07-29T18:12:57.045Z,30.82
2022-07-29T18:15:23.665Z,30.75
2022-07-29T18:17:56.725Z,30.65
2022-07-29T18:20:25.837Z,30.56
2022-07-29T18:22:52.837Z,30.44
2022-07-29T18:25:19.609Z,30.36
2022-07-29T18:27:46.334Z,30.33
2022-07-29T18:30:15.049Z,30.27
2022-07-29T18:32:54.326Z,30.20
2022-07-29T18:35:28.972Z,30.14
2022-07-29T18:38:00.664Z,30.08
2022-07-29T18:40:29.767Z,30.05
2022-07-29T18:42:56.978Z,30.02
2022-07-29T18:45:28.290Z,29.97
2022-07-29T18:47:56.428Z,29.93
2022-07-29T18:50:28.885Z,29.90
2022-07-29T18:52:59.137Z,29.84
2022-07-29T18:55:26.499Z,29.81
2022-07-29T18:57:55.874Z,29.76
2022-07-29T19:00:24.008Z,29.70
2022-07-29T19:02:50.853Z,29.65
2022-07-29T19:05:17.589Z,29.57
2022-07-29T19:07:44.221Z,29.50
2022-07-29T19:10:11.292Z,29.46
2022-07-29T19:12:37.987Z,29.43
2022-07-29T19:15:04.866Z,29.35
2022-07-29T19:17:31.516Z,29.30
2022-07-29T19:19:58.994Z,29.25
2022-07-29T19:22:26.159Z,29.21
2022-07-29T19:24:53.379Z,29.17
2022-07-29T19:27:20.048Z,29.15
2022-07-29T19:29:46.656Z,29.11
2022-07-29T19:32:14.533Z,29.09
2022-07-29T19:35:10.411Z,29.09
2022-07-29T19:37:37.501Z,29.06
2022-07-29T19:40:05.342Z,29.04
2022-07-29T19:42:31.947Z,29.00
2022-07-29T19:44:58.556Z,28.97
2022-07-29T19:47:25.160Z,28.95
2022-07-29T19:49:51.860Z,28.91
2022-07-29T19:52:18.484Z,28.86
2022-07-29T19:54:45.228Z,28.84
2022-07-29T19:57:11.839Z,28.84
2022-07-29T19:59:38.825Z,28.80
2022-07-29T20:02:05.849Z,28.79
2022-07-29T20:04:32.533Z,28.81
2022-07-29T20:07:01.893Z,28.80
2022-07-29T20:09:28.862Z,28.77
2022-07-29T20:11:55.624Z,28.72
2022-07-29T20:14:22.709Z,28.66
2022-07-29T20:16:50.677Z,28.63
2022-07-29T20:19:17.626Z,28.61
2022-07-29T20:21:44.323Z,28.56
2022-07-29T20:24:11.444Z,28.51
2022-07-29T20:26:38.320Z,28.49
2022-07-29T20:29:05.419Z,28.44
2022-07-29T20:31:33.054Z,28.42
2022-07-29T20:34:01.067Z,28.40
2022-07-29T20:36:28.899Z,28.39
2022-07-29T20:38:56.021Z,28.37
2022-07-29T20:41:23.300Z,28.36
2022-07-29T20:43:50.160Z,28.35
2022-07-29T20:46:18.247Z,28.32
2022-07-29T20:48:45.756Z,28.25
2022-07-29T20:51:12.863Z,28.20
2022-07-29T20:53:40.651Z,28.17
2022-07-29T20:56:07.784Z,28.14
2022-07-29T20:58:36.181Z,28.10
2022-07-29T21:01:03.245Z,28.07
2022-07-29T21:03:30.149Z,28.05
2022-07-29T21:05:57.083Z,28.03
2022-07-29T21:08:23.874Z,27.98
2022-07-29T21:10:50.526Z,27.91
2022-07-29T21:13:18.250Z,27.87
2022-07-29T21:15:48.417Z,27.80
2022-07-29T21:18:32.434Z,27.75
2022-07-29T21:21:04.683Z,27.68
2022-07-29T21:23:31.679Z,27.63
2022-07-29T21:25:58.938Z,27.56
2022-07-29T21:28:51.930Z,27.54
2022-07-29T21:31:18.698Z,27.50
2022-07-29T21:33:46.627Z,27.46
2022-07-29T21:36:47.196Z,27.44
2022-07-29T21:39:06.917Z,27.41
2022-07-29T21:41:34.821Z,27.38
2022-07-29T21:44:01.578Z,27.34
2022-07-29T21:46:28.362Z,27.28
2022-07-29T21:48:55.135Z,27.30
2022-07-29T21:51:27.575Z,27.22
2022-07-29T21:53:54.238Z,27.21
2022-07-29T21:56:22.626Z,27.20
2022-07-29T21:58:54.300Z,27.15
2022-07-29T22:01:20.969Z,27.12
2022-07-29T22:03:47.620Z,27.09
2022-07-29T22:06:17.948Z,27.06
2022-07-29T22:08:45.796Z,27.03
2022-07-29T22:11:12.997Z,26.99
2022-07-29T22:13:39.639Z,26.98
2022-07-29T22:16:06.680Z,26.94
2022-07-29T22:18:33.251Z,26.92
2022-07-29T22:20:59.847Z,26.94
2022-07-29T22:23:26.531Z,26.98
2022-07-29T22:25:53.156Z,27.01
2022-07-29T22:28:19.895Z,27.03
2022-07-29T22:30:46.643Z,27.04
2022-07-29T22:33:17.447Z,27.04
2022-07-29T22:35:48.682Z,27.03
2022-07-29T22:38:16.552Z,27.04
2022-07-29T22:40:43.781Z,27.00
2022-07-29T22:43:10.674Z,26.99
2022-07-29T22:45:37.383Z,26.97
2022-07-29T22:48:04.400Z,26.93
2022-07-29T22:50:31.121Z,26.90
2022-07-29T22:52:57.769Z,26.88
2022-07-29T22:55:24.383Z,26.86
2022-07-29T22:57:51.041Z,26.85
2022-07-29T23:00:17.950Z,26.83
2022-07-29T23:02:44.609Z,26.84
2022-07-29T23:05:15.816Z,26.81
2022-07-29T23:07:42.847Z,26.79
2022-07-29T23:10:09.975Z,26.76
2022-07-29T23:12:36.828Z,26.70
2022-07-29T23:15:04.705Z,26.67
2022-07-29T23:17:31.430Z,26.63
2022-07-29T23:20:03.137Z,26.57
2022-07-29T23:22:29.761Z,26.52
2022-07-29T23:24:58.762Z,26.48
2022-07-29T23:27:25.582Z,26.46
2022-07-29T23:29:52.199Z,26.43
2022-07-29T23:32:18.815Z,26.39
2022-07-29T23:34:45.413Z,26.34
2022-07-29T23:37:11.987Z,26.32
2022-07-29T23:39:38.612Z,26.29
2022-07-29T23:42:05.252Z,26.28
2022-07-29T23:44:31.874Z,26.27
2022-07-29T23:46:59.036Z,26.25
2022-07-29T23:49:25.839Z,26.22
2022-07-29T23:51:52.577Z,26.17
2022-07-29T23:54:19.333Z,26.10
2022-07-29T23:56:46.492Z,26.07
2022-07-29T23:59:13.203Z,26.01
